sensor_id;sensor_type;location;lat;lon;timestamp;P1;durP1;ratioP1;P2;durP2;ratioP2
8716;SDS011;4395;48.554;8.820;2023-04-23T00:00:33;3.60;;;2.40;;
8716;SDS011;4395;48.554;8.820;2023-04-23T00:02:37;2.40;;;2.20;;
8716;SDS011;4395;48.554;8.820;2023-04-23T00:04:45;3.37;;;2.30;;
8716;SDS011;4395;48.554;8.820;2023-04-23T00:06:51;5.23;;;2.70;;
8716;SDS011;4395;48.554;8.820;2023-04-23T00:08:54;3.20;;;2.00;;
8716;SDS011;4395;48.554;8.820;2023-04-23T00:11:01;4.13;;;2.10;;
8716;SDS011;4395;48.554;8.820;2023-04-23T00:13:04;4.30;;;2.13;;
8716;SDS011;4395;48.554;8.820;2023-04-23T00:15:08;2.97;;;2.37;;
8716;SDS011;4395;48.554;8.820;2023-04-23T00:17:13;3.83;;;2.03;;
8716;SDS011;4395;48.554;8.820;2023-04-23T00:19:15;2.73;;;1.90;;
8716;SDS011;4395;48.554;8.820;2023-04-23T00:21:18;3.30;;;1.90;;
8716;SDS011;4395;48.554;8.820;2023-04-23T00:23:21;3.87;;;1.90;;
8716;SDS011;4395;48.554;8.820;2023-04-23T00:25:23;2.83;;;1.77;;
8716;SDS011;4395;48.554;8.820;2023-04-23T00:27:26;2.93;;;1.83;;
8716;SDS011;4395;48.554;8.820;2023-04-23T00:29:29;4.10;;;2.10;;
8716;SDS011;4395;48.554;8.820;2023-04-23T00:31:32;2.77;;;1.70;;
8716;SDS011;4395;48.554;8.820;2023-04-23T00:33:36;2.07;;;1.57;;
8716;SDS011;4395;48.554;8.820;2023-04-23T00:35:39;2.00;;;1.73;;
8716;SDS011;4395;48.554;8.820;2023-04-23T00:37:42;2.27;;;2.00;;
8716;SDS011;4395;48.554;8.820;2023-04-23T00:39:45;1.90;;;1.80;;
8716;SDS011;4395;48.554;8.820;2023-04-23T00:41:48;3.00;;;1.90;;
8716;SDS011;4395;48.554;8.820;2023-04-23T00:43:51;3.63;;;1.77;;
8716;SDS011;4395;48.554;8.820;2023-04-23T00:45:55;2.07;;;1.90;;
8716;SDS011;4395;48.554;8.820;2023-04-23T00:47:58;2.22;;;1.80;;
8716;SDS011;4395;48.554;8.820;2023-04-23T00:50:03;4.40;;;1.83;;
8716;SDS011;4395;48.554;8.820;2023-04-23T00:52:06;1.92;;;1.77;;
8716;SDS011;4395;48.554;8.820;2023-04-23T00:54:09;3.40;;;2.20;;
8716;SDS011;4395;48.554;8.820;2023-04-23T00:56:12;2.80;;;1.80;;
8716;SDS011;4395;48.554;8.820;2023-04-23T00:58:16;2.00;;;1.80;;
8716;SDS011;4395;48.554;8.820;2023-04-23T01:00:20;2.25;;;1.63;;
8716;SDS011;4395;48.554;8.820;2023-04-23T01:02:23;1.77;;;1.67;;
8716;SDS011;4395;48.554;8.820;2023-04-23T01:04:28;1.83;;;1.67;;
8716;SDS011;4395;48.554;8.820;2023-04-23T01:06:33;2.40;;;1.80;;
8716;SDS011;4395;48.554;8.820;2023-04-23T01:08:36;3.63;;;1.73;;
8716;SDS011;4395;48.554;8.820;2023-04-23T01:10:40;2.03;;;1.75;;
8716;SDS011;4395;48.554;8.820;2023-04-23T01:12:43;3.03;;;1.77;;
8716;SDS011;4395;48.554;8.820;2023-04-23T01:14:48;1.83;;;1.63;;
8716;SDS011;4395;48.554;8.820;2023-04-23T01:16:50;1.57;;;1.43;;
8716;SDS011;4395;48.554;8.820;2023-04-23T01:18:54;1.73;;;1.63;;
8716;SDS011;4395;48.554;8.820;2023-04-23T01:20:57;2.27;;;1.50;;
8716;SDS011;4395;48.554;8.820;2023-04-23T01:23:01;2.85;;;1.65;;
8716;SDS011;4395;48.554;8.820;2023-04-23T01:25:05;2.37;;;1.40;;
8716;SDS011;4395;48.554;8.820;2023-04-23T01:27:10;3.27;;;1.53;;
8716;SDS011;4395;48.554;8.820;2023-04-23T01:29:13;2.15;;;1.50;;
8716;SDS011;4395;48.554;8.820;2023-04-23T01:31:16;1.92;;;1.55;;
8716;SDS011;4395;48.554;8.820;2023-04-23T01:33:20;1.77;;;1.33;;
8716;SDS011;4395;48.554;8.820;2023-04-23T01:35:23;2.00;;;1.50;;
8716;SDS011;4395;48.554;8.820;2023-04-23T01:37:26;1.60;;;1.45;;
8716;SDS011;4395;48.554;8.820;2023-04-23T01:39:31;1.53;;;1.33;;
8716;SDS011;4395;48.554;8.820;2023-04-23T01:41:36;1.45;;;1.35;;
8716;SDS011;4395;48.554;8.820;2023-04-23T01:43:39;2.03;;;1.02;;
8716;SDS011;4395;48.554;8.820;2023-04-23T01:45:43;1.45;;;1.20;;
8716;SDS011;4395;48.554;8.820;2023-04-23T01:47:46;1.15;;;1.05;;
8716;SDS011;4395;48.554;8.820;2023-04-23T01:49:49;0.90;;;0.90;;
8716;SDS011;4395;48.554;8.820;2023-04-23T01:51:53;1.15;;;1.05;;
8716;SDS011;4395;48.554;8.820;2023-04-23T01:53:55;1.40;;;1.30;;
8716;SDS011;4395;48.554;8.820;2023-04-23T01:55:59;1.33;;;0.93;;
8716;SDS011;4395;48.554;8.820;2023-04-23T01:58:03;1.50;;;1.15;;
8716;SDS011;4395;48.554;8.820;2023-04-23T02:00:07;1.87;;;1.20;;
8716;SDS011;4395;48.554;8.820;2023-04-23T02:02:14;1.63;;;1.10;;
8716;SDS011;4395;48.554;8.820;2023-04-23T02:04:17;1.73;;;1.30;;
8716;SDS011;4395;48.554;8.820;2023-04-23T02:06:20;0.90;;;0.90;;
8716;SDS011;4395;48.554;8.820;2023-04-23T02:08:22;0.88;;;0.88;;
8716;SDS011;4395;48.554;8.820;2023-04-23T02:10:26;1.87;;;1.27;;
8716;SDS011;4395;48.554;8.820;2023-04-23T02:12:31;1.27;;;1.10;;
8716;SDS011;4395;48.554;8.820;2023-04-23T02:14:34;1.05;;;0.77;;
8716;SDS011;4395;48.554;8.820;2023-04-23T02:16:37;1.63;;;0.90;;
8716;SDS011;4395;48.554;8.820;2023-04-23T02:18:40;1.00;;;0.90;;
8716;SDS011;4395;48.554;8.820;2023-04-23T02:20:43;1.60;;;1.13;;
8716;SDS011;4395;48.554;8.820;2023-04-23T02:22:46;1.15;;;1.05;;
8716;SDS011;4395;48.554;8.820;2023-04-23T02:24:50;1.07;;;0.97;;
8716;SDS011;4395;48.554;8.820;2023-04-23T02:26:53;2.20;;;1.00;;
8716;SDS011;4395;48.554;8.820;2023-04-23T02:28:59;1.53;;;0.83;;
8716;SDS011;4395;48.554;8.820;2023-04-23T02:31:02;1.07;;;0.97;;
8716;SDS011;4395;48.554;8.820;2023-04-23T02:33:05;0.90;;;0.90;;
8716;SDS011;4395;48.554;8.820;2023-04-23T02:35:08;4.00;;;1.13;;
8716;SDS011;4395;48.554;8.820;2023-04-23T02:37:11;1.13;;;1.02;;
8716;SDS011;4395;48.554;8.820;2023-04-23T02:39:14;1.33;;;1.07;;
8716;SDS011;4395;48.554;8.820;2023-04-23T02:41:16;0.93;;;0.83;;
8716;SDS011;4395;48.554;8.820;2023-04-23T02:43:19;0.90;;;0.90;;
8716;SDS011;4395;48.554;8.820;2023-04-23T02:45:23;1.88;;;0.93;;
8716;SDS011;4395;48.554;8.820;2023-04-23T02:47:26;1.40;;;1.30;;
8716;SDS011;4395;48.554;8.820;2023-04-23T02:49:30;1.23;;;1.10;;
8716;SDS011;4395;48.554;8.820;2023-04-23T02:51:33;1.70;;;1.03;;
8716;SDS011;4395;48.554;8.820;2023-04-23T02:53:36;1.17;;;1.15;;
8716;SDS011;4395;48.554;8.820;2023-04-23T02:55:39;1.30;;;1.20;;
8716;SDS011;4395;48.554;8.820;2023-04-23T02:57:43;2.20;;;1.77;;
8716;SDS011;4395;48.554;8.820;2023-04-23T02:59:46;1.40;;;1.30;;
8716;SDS011;4395;48.554;8.820;2023-04-23T03:01:52;1.30;;;1.20;;
8716;SDS011;4395;48.554;8.820;2023-04-23T03:03:56;1.53;;;1.43;;
8716;SDS011;4395;48.554;8.820;2023-04-23T03:06:00;1.70;;;1.50;;
8716;SDS011;4395;48.554;8.820;2023-04-23T03:08:03;1.63;;;1.53;;
8716;SDS011;4395;48.554;8.820;2023-04-23T03:10:06;1.87;;;1.73;;
8716;SDS011;4395;48.554;8.820;2023-04-23T03:12:10;2.97;;;1.90;;
8716;SDS011;4395;48.554;8.820;2023-04-23T03:14:13;1.50;;;1.40;;
8716;SDS011;4395;48.554;8.820;2023-04-23T03:16:16;1.60;;;1.50;;
8716;SDS011;4395;48.554;8.820;2023-04-23T03:18:21;1.97;;;1.40;;
8716;SDS011;4395;48.554;8.820;2023-04-23T03:20:27;1.20;;;1.20;;
8716;SDS011;4395;48.554;8.820;2023-04-23T03:22:29;1.40;;;1.30;;
8716;SDS011;4395;48.554;8.820;2023-04-23T03:24:33;2.00;;;1.37;;
8716;SDS011;4395;48.554;8.820;2023-04-23T03:26:36;1.00;;;1.00;;
8716;SDS011;4395;48.554;8.820;2023-04-23T03:28:39;1.30;;;1.20;;
8716;SDS011;4395;48.554;8.820;2023-04-23T03:30:42;1.30;;;1.20;;
8716;SDS011;4395;48.554;8.820;2023-04-23T03:32:45;1.00;;;0.90;;
8716;SDS011;4395;48.554;8.820;2023-04-23T03:34:49;1.10;;;1.03;;
8716;SDS011;4395;48.554;8.820;2023-04-23T03:36:52;1.10;;;0.80;;
8716;SDS011;4395;48.554;8.820;2023-04-23T03:38:55;0.83;;;0.80;;
8716;SDS011;4395;48.554;8.820;2023-04-23T03:41:01;0.70;;;0.70;;
8716;SDS011;4395;48.554;8.820;2023-04-23T03:43:04;0.70;;;0.60;;
8716;SDS011;4395;48.554;8.820;2023-04-23T03:45:30;1.25;;;0.77;;
8716;SDS011;4395;48.554;8.820;2023-04-23T03:47:33;0.98;;;0.88;;
8716;SDS011;4395;48.554;8.820;2023-04-23T03:49:37;0.80;;;0.80;;
8716;SDS011;4395;48.554;8.820;2023-04-23T03:51:43;0.77;;;0.60;;
8716;SDS011;4395;48.554;8.820;2023-04-23T03:53:46;1.35;;;0.77;;
8716;SDS011;4395;48.554;8.820;2023-04-23T03:56:09;0.90;;;0.90;;
8716;SDS011;4395;48.554;8.820;2023-04-23T03:58:21;0.68;;;0.63;;
8716;SDS011;4395;48.554;8.820;2023-04-23T04:00:25;0.70;;;0.70;;
8716;SDS011;4395;48.554;8.820;2023-04-23T04:02:28;0.80;;;0.80;;
8716;SDS011;4395;48.554;8.820;2023-04-23T04:04:32;0.70;;;0.70;;
8716;SDS011;4395;48.554;8.820;2023-04-23T04:06:35;0.70;;;0.70;;
8716;SDS011;4395;48.554;8.820;2023-04-23T04:08:39;0.63;;;0.60;;
8716;SDS011;4395;48.554;8.820;2023-04-23T04:10:42;0.88;;;0.80;;
8716;SDS011;4395;48.554;8.820;2023-04-23T04:12:45;0.73;;;0.73;;
8716;SDS011;4395;48.554;8.820;2023-04-23T04:14:48;1.27;;;1.17;;
8716;SDS011;4395;48.554;8.820;2023-04-23T04:16:51;1.00;;;1.00;;
8716;SDS011;4395;48.554;8.820;2023-04-23T04:18:55;0.73;;;0.73;;
8716;SDS011;4395;48.554;8.820;2023-04-23T04:20:57;0.82;;;0.82;;
8716;SDS011;4395;48.554;8.820;2023-04-23T04:23:00;1.40;;;1.30;;
8716;SDS011;4395;48.554;8.820;2023-04-23T04:25:05;1.42;;;0.90;;
8716;SDS011;4395;48.554;8.820;2023-04-23T04:27:09;0.80;;;0.80;;
8716;SDS011;4395;48.554;8.820;2023-04-23T04:29:12;1.05;;;0.95;;
8716;SDS011;4395;48.554;8.820;2023-04-23T04:31:15;1.10;;;1.00;;
8716;SDS011;4395;48.554;8.820;2023-04-23T04:33:18;3.35;;;1.20;;
8716;SDS011;4395;48.554;8.820;2023-04-23T04:35:21;1.00;;;1.00;;
8716;SDS011;4395;48.554;8.820;2023-04-23T04:37:24;1.80;;;0.95;;
8716;SDS011;4395;48.554;8.820;2023-04-23T04:39:28;1.55;;;0.93;;
8716;SDS011;4395;48.554;8.820;2023-04-23T04:41:32;1.30;;;1.13;;
8716;SDS011;4395;48.554;8.820;2023-04-23T04:43:35;0.82;;;0.80;;
8716;SDS011;4395;48.554;8.820;2023-04-23T04:45:37;1.23;;;1.10;;
8716;SDS011;4395;48.554;8.820;2023-04-23T04:47:40;1.20;;;1.10;;
8716;SDS011;4395;48.554;8.820;2023-04-23T04:49:43;1.52;;;1.25;;
8716;SDS011;4395;48.554;8.820;2023-04-23T04:51:46;3.38;;;1.38;;
8716;SDS011;4395;48.554;8.820;2023-04-23T04:53:49;1.40;;;1.20;;
8716;SDS011;4395;48.554;8.820;2023-04-23T04:55:51;1.10;;;1.00;;
8716;SDS011;4395;48.554;8.820;2023-04-23T04:57:56;2.08;;;1.10;;
8716;SDS011;4395;48.554;8.820;2023-04-23T05:00:00;1.52;;;1.08;;
8716;SDS011;4395;48.554;8.820;2023-04-23T05:02:05;1.20;;;1.08;;
8716;SDS011;4395;48.554;8.820;2023-04-23T05:04:08;1.23;;;1.13;;
8716;SDS011;4395;48.554;8.820;2023-04-23T05:06:11;1.30;;;1.20;;
8716;SDS011;4395;48.554;8.820;2023-04-23T05:08:14;1.10;;;1.00;;
8716;SDS011;4395;48.554;8.820;2023-04-23T05:10:17;1.20;;;0.70;;
8716;SDS011;4395;48.554;8.820;2023-04-23T05:12:20;0.90;;;0.90;;
8716;SDS011;4395;48.554;8.820;2023-04-23T05:14:25;0.95;;;0.95;;
8716;SDS011;4395;48.554;8.820;2023-04-23T05:16:27;0.82;;;0.82;;
8716;SDS011;4395;48.554;8.820;2023-04-23T05:18:30;0.80;;;0.73;;
8716;SDS011;4395;48.554;8.820;2023-04-23T05:20:33;1.10;;;1.00;;
8716;SDS011;4395;48.554;8.820;2023-04-23T05:22:36;0.70;;;0.68;;
8716;SDS011;4395;48.554;8.820;2023-04-23T05:24:39;1.52;;;1.00;;
8716;SDS011;4395;48.554;8.820;2023-04-23T05:26:42;0.75;;;0.75;;
8716;SDS011;4395;48.554;8.820;2023-04-23T05:28:45;2.03;;;0.98;;
8716;SDS011;4395;48.554;8.820;2023-04-23T05:30:49;1.33;;;0.90;;
8716;SDS011;4395;48.554;8.820;2023-04-23T05:32:52;0.70;;;0.70;;
8716;SDS011;4395;48.554;8.820;2023-04-23T05:34:55;0.70;;;0.70;;
8716;SDS011;4395;48.554;8.820;2023-04-23T05:36:58;0.70;;;0.57;;
8716;SDS011;4395;48.554;8.820;2023-04-23T05:39:01;2.65;;;0.60;;
8716;SDS011;4395;48.554;8.820;2023-04-23T05:41:04;2.15;;;0.60;;
8716;SDS011;4395;48.554;8.820;2023-04-23T05:43:07;1.23;;;0.90;;
8716;SDS011;4395;48.554;8.820;2023-04-23T05:45:10;1.35;;;0.90;;
8716;SDS011;4395;48.554;8.820;2023-04-23T05:47:14;1.35;;;0.80;;
8716;SDS011;4395;48.554;8.820;2023-04-23T05:49:17;1.23;;;0.57;;
8716;SDS011;4395;48.554;8.820;2023-04-23T05:51:20;2.38;;;0.60;;
8716;SDS011;4395;48.554;8.820;2023-04-23T05:53:23;0.98;;;0.68;;
8716;SDS011;4395;48.554;8.820;2023-04-23T05:55:26;0.73;;;0.60;;
8716;SDS011;4395;48.554;8.820;2023-04-23T05:57:28;2.08;;;0.90;;
8716;SDS011;4395;48.554;8.820;2023-04-23T05:59:32;0.52;;;0.52;;
8716;SDS011;4395;48.554;8.820;2023-04-23T06:01:35;1.63;;;0.85;;
8716;SDS011;4395;48.554;8.820;2023-04-23T06:03:39;0.70;;;0.70;;
8716;SDS011;4395;48.554;8.820;2023-04-23T06:05:46;0.60;;;0.60;;
8716;SDS011;4395;48.554;8.820;2023-04-23T06:07:49;0.93;;;0.82;;
8716;SDS011;4395;48.554;8.820;2023-04-23T06:09:51;0.77;;;0.77;;
8716;SDS011;4395;48.554;8.820;2023-04-23T06:11:54;1.23;;;0.82;;
8716;SDS011;4395;48.554;8.820;2023-04-23T06:13:57;0.80;;;0.80;;
8716;SDS011;4395;48.554;8.820;2023-04-23T06:16:00;1.27;;;0.70;;
8716;SDS011;4395;48.554;8.820;2023-04-23T06:18:03;1.20;;;0.90;;
8716;SDS011;4395;48.554;8.820;2023-04-23T06:20:08;0.70;;;0.70;;
8716;SDS011;4395;48.554;8.820;2023-04-23T06:22:12;0.90;;;0.82;;
8716;SDS011;4395;48.554;8.820;2023-04-23T06:24:15;0.90;;;0.90;;
8716;SDS011;4395;48.554;8.820;2023-04-23T06:26:17;0.60;;;0.60;;
8716;SDS011;4395;48.554;8.820;2023-04-23T06:28:22;1.13;;;0.73;;
8716;SDS011;4395;48.554;8.820;2023-04-23T06:30:45;1.10;;;1.00;;
8716;SDS011;4395;48.554;8.820;2023-04-23T06:32:48;3.07;;;1.13;;
8716;SDS011;4395;48.554;8.820;2023-04-23T06:34:51;1.13;;;1.00;;
8716;SDS011;4395;48.554;8.820;2023-04-23T06:37:03;1.10;;;1.00;;
8716;SDS011;4395;48.554;8.820;2023-04-23T06:39:06;0.80;;;0.80;;
8716;SDS011;4395;48.554;8.820;2023-04-23T06:41:09;0.80;;;0.80;;
8716;SDS011;4395;48.554;8.820;2023-04-23T06:43:13;1.00;;;0.90;;
8716;SDS011;4395;48.554;8.820;2023-04-23T06:45:42;0.70;;;0.70;;
8716;SDS011;4395;48.554;8.820;2023-04-23T06:47:44;1.13;;;0.60;;
8716;SDS011;4395;48.554;8.820;2023-04-23T06:49:49;0.83;;;0.70;;
8716;SDS011;4395;48.554;8.820;2023-04-23T06:51:52;1.00;;;0.68;;
8716;SDS011;4395;48.554;8.820;2023-04-23T06:53:59;0.50;;;0.50;;
8716;SDS011;4395;48.554;8.820;2023-04-23T06:56:02;1.07;;;0.90;;
8716;SDS011;4395;48.554;8.820;2023-04-23T06:58:05;0.50;;;0.50;;
8716;SDS011;4395;48.554;8.820;2023-04-23T07:00:08;0.98;;;0.70;;
8716;SDS011;4395;48.554;8.820;2023-04-23T07:02:15;2.07;;;0.80;;
8716;SDS011;4395;48.554;8.820;2023-04-23T07:04:18;1.33;;;0.70;;
8716;SDS011;4395;48.554;8.820;2023-04-23T07:06:21;0.93;;;0.53;;
8716;SDS011;4395;48.554;8.820;2023-04-23T07:08:24;0.97;;;0.97;;
8716;SDS011;4395;48.554;8.820;2023-04-23T07:10:28;0.80;;;0.73;;
8716;SDS011;4395;48.554;8.820;2023-04-23T07:12:31;1.60;;;0.80;;
8716;SDS011;4395;48.554;8.820;2023-04-23T07:14:33;2.43;;;0.80;;
8716;SDS011;4395;48.554;8.820;2023-04-23T07:16:36;1.03;;;0.80;;
8716;SDS011;4395;48.554;8.820;2023-04-23T07:18:39;0.70;;;0.70;;
8716;SDS011;4395;48.554;8.820;2023-04-23T07:20:41;2.20;;;0.83;;
8716;SDS011;4395;48.554;8.820;2023-04-23T07:22:44;0.93;;;0.67;;
8716;SDS011;4395;48.554;8.820;2023-04-23T07:24:48;1.00;;;0.90;;
8716;SDS011;4395;48.554;8.820;2023-04-23T07:26:52;0.87;;;0.70;;
8716;SDS011;4395;48.554;8.820;2023-04-23T07:28:55;0.40;;;0.40;;
8716;SDS011;4395;48.554;8.820;2023-04-23T07:30:58;1.70;;;0.97;;
8716;SDS011;4395;48.554;8.820;2023-04-23T07:33:01;1.00;;;0.90;;
8716;SDS011;4395;48.554;8.820;2023-04-23T07:35:04;0.90;;;0.90;;
8716;SDS011;4395;48.554;8.820;2023-04-23T07:37:08;0.63;;;0.60;;
8716;SDS011;4395;48.554;8.820;2023-04-23T07:39:11;0.80;;;0.80;;
8716;SDS011;4395;48.554;8.820;2023-04-23T07:41:14;0.70;;;0.70;;
8716;SDS011;4395;48.554;8.820;2023-04-23T07:43:18;2.33;;;0.80;;
8716;SDS011;4395;48.554;8.820;2023-04-23T07:45:21;1.60;;;0.77;;
8716;SDS011;4395;48.554;8.820;2023-04-23T07:47:24;1.50;;;0.80;;
8716;SDS011;4395;48.554;8.820;2023-04-23T07:49:27;1.20;;;0.97;;
8716;SDS011;4395;48.554;8.820;2023-04-23T07:51:30;0.80;;;0.80;;
8716;SDS011;4395;48.554;8.820;2023-04-23T07:53:34;1.33;;;1.00;;
8716;SDS011;4395;48.554;8.820;2023-04-23T07:55:37;2.33;;;1.30;;
8716;SDS011;4395;48.554;8.820;2023-04-23T07:57:40;2.73;;;1.10;;
8716;SDS011;4395;48.554;8.820;2023-04-23T07:59:44;0.83;;;0.80;;
8716;SDS011;4395;48.554;8.820;2023-04-23T08:01:47;1.00;;;0.83;;
8716;SDS011;4395;48.554;8.820;2023-04-23T08:03:50;1.50;;;0.97;;
8716;SDS011;4395;48.554;8.820;2023-04-23T08:05:53;1.53;;;1.00;;
8716;SDS011;4395;48.554;8.820;2023-04-23T08:07:56;1.33;;;1.17;;
8716;SDS011;4395;48.554;8.820;2023-04-23T08:09:59;1.43;;;1.00;;
8716;SDS011;4395;48.554;8.820;2023-04-23T08:12:06;2.13;;;1.10;;
8716;SDS011;4395;48.554;8.820;2023-04-23T08:14:09;1.30;;;1.20;;
8716;SDS011;4395;48.554;8.820;2023-04-23T08:16:13;1.03;;;1.00;;
8716;SDS011;4395;48.554;8.820;2023-04-23T08:18:16;0.90;;;0.77;;
8716;SDS011;4395;48.554;8.820;2023-04-23T08:20:18;2.00;;;1.27;;
8716;SDS011;4395;48.554;8.820;2023-04-23T08:22:21;1.80;;;1.17;;
8716;SDS011;4395;48.554;8.820;2023-04-23T08:24:24;1.70;;;0.90;;
8716;SDS011;4395;48.554;8.820;2023-04-23T08:26:27;2.70;;;1.33;;
8716;SDS011;4395;48.554;8.820;2023-04-23T08:28:30;1.87;;;1.30;;
8716;SDS011;4395;48.554;8.820;2023-04-23T08:30:32;1.83;;;1.30;;
8716;SDS011;4395;48.554;8.820;2023-04-23T08:32:37;2.30;;;1.20;;
8716;SDS011;4395;48.554;8.820;2023-04-23T08:34:40;1.47;;;1.30;;
8716;SDS011;4395;48.554;8.820;2023-04-23T08:36:43;3.57;;;1.30;;
8716;SDS011;4395;48.554;8.820;2023-04-23T08:38:46;1.50;;;1.40;;
8716;SDS011;4395;48.554;8.820;2023-04-23T08:40:50;1.40;;;1.20;;
8716;SDS011;4395;48.554;8.820;2023-04-23T08:43:00;1.17;;;1.07;;
8716;SDS011;4395;48.554;8.820;2023-04-23T08:45:05;1.73;;;1.47;;
8716;SDS011;4395;48.554;8.820;2023-04-23T08:47:09;1.53;;;1.40;;
8716;SDS011;4395;48.554;8.820;2023-04-23T08:49:15;1.00;;;0.93;;
8716;SDS011;4395;48.554;8.820;2023-04-23T08:51:20;1.30;;;1.00;;
8716;SDS011;4395;48.554;8.820;2023-04-23T08:53:25;1.30;;;1.20;;
8716;SDS011;4395;48.554;8.820;2023-04-23T08:55:29;1.13;;;1.03;;
8716;SDS011;4395;48.554;8.820;2023-04-23T08:57:32;2.07;;;1.00;;
8716;SDS011;4395;48.554;8.820;2023-04-23T08:59:35;1.73;;;1.13;;
8716;SDS011;4395;48.554;8.820;2023-04-23T09:01:41;4.03;;;1.10;;
8716;SDS011;4395;48.554;8.820;2023-04-23T09:03:44;1.47;;;1.00;;
8716;SDS011;4395;48.554;8.820;2023-04-23T09:05:49;0.93;;;0.80;;
8716;SDS011;4395;48.554;8.820;2023-04-23T09:07:53;1.93;;;1.10;;
8716;SDS011;4395;48.554;8.820;2023-04-23T09:09:56;3.37;;;0.80;;
8716;SDS011;4395;48.554;8.820;2023-04-23T09:11:58;1.10;;;1.00;;
8716;SDS011;4395;48.554;8.820;2023-04-23T09:14:01;1.17;;;0.73;;
8716;SDS011;4395;48.554;8.820;2023-04-23T09:16:05;1.00;;;0.90;;
8716;SDS011;4395;48.554;8.820;2023-04-23T09:18:08;0.77;;;0.70;;
8716;SDS011;4395;48.554;8.820;2023-04-23T09:20:11;2.63;;;1.13;;
8716;SDS011;4395;48.554;8.820;2023-04-23T09:22:17;2.07;;;0.80;;
8716;SDS011;4395;48.554;8.820;2023-04-23T09:24:40;0.80;;;0.80;;
8716;SDS011;4395;48.554;8.820;2023-04-23T09:26:44;0.77;;;0.70;;
8716;SDS011;4395;48.554;8.820;2023-04-23T09:28:47;0.90;;;0.80;;
8716;SDS011;4395;48.554;8.820;2023-04-23T09:30:51;2.10;;;1.10;;
8716;SDS011;4395;48.554;8.820;2023-04-23T09:32:54;0.83;;;0.80;;
8716;SDS011;4395;48.554;8.820;2023-04-23T09:34:57;1.50;;;0.97;;
8716;SDS011;4395;48.554;8.820;2023-04-23T09:37:00;1.43;;;1.00;;
8716;SDS011;4395;48.554;8.820;2023-04-23T09:39:11;1.10;;;1.00;;
8716;SDS011;4395;48.554;8.820;2023-04-23T09:41:21;1.00;;;0.90;;
8716;SDS011;4395;48.554;8.820;2023-04-23T09:43:24;1.17;;;1.00;;
8716;SDS011;4395;48.554;8.820;2023-04-23T09:45:31;1.23;;;1.13;;
8716;SDS011;4395;48.554;8.820;2023-04-23T09:47:37;0.97;;;0.97;;
8716;SDS011;4395;48.554;8.820;2023-04-23T09:49:46;0.90;;;0.90;;
8716;SDS011;4395;48.554;8.820;2023-04-23T09:51:50;0.93;;;0.93;;
8716;SDS011;4395;48.554;8.820;2023-04-23T09:53:52;0.77;;;0.77;;
8716;SDS011;4395;48.554;8.820;2023-04-23T09:55:57;0.80;;;0.80;;
8716;SDS011;4395;48.554;8.820;2023-04-23T09:58:00;3.23;;;1.10;;
8716;SDS011;4395;48.554;8.820;2023-04-23T10:00:11;0.70;;;0.70;;
8716;SDS011;4395;48.554;8.820;2023-04-23T10:02:15;1.13;;;1.03;;
8716;SDS011;4395;48.554;8.820;2023-04-23T10:04:19;0.90;;;0.90;;
8716;SDS011;4395;48.554;8.820;2023-04-23T10:06:27;1.00;;;1.00;;
8716;SDS011;4395;48.554;8.820;2023-04-23T10:08:52;1.27;;;1.00;;
8716;SDS011;4395;48.554;8.820;2023-04-23T10:10:56;5.13;;;0.90;;
8716;SDS011;4395;48.554;8.820;2023-04-23T10:13:19;0.93;;;0.80;;
8716;SDS011;4395;48.554;8.820;2023-04-23T10:15:22;1.13;;;0.80;;
8716;SDS011;4395;48.554;8.820;2023-04-23T10:17:26;1.20;;;0.97;;
8716;SDS011;4395;48.554;8.820;2023-04-23T10:19:30;1.33;;;1.07;;
8716;SDS011;4395;48.554;8.820;2023-04-23T10:21:34;0.97;;;0.90;;
8716;SDS011;4395;48.554;8.820;2023-04-23T10:23:52;3.50;;;1.07;;
8716;SDS011;4395;48.554;8.820;2023-04-23T10:25:59;1.53;;;1.10;;
8716;SDS011;4395;48.554;8.820;2023-04-23T10:28:05;0.97;;;0.97;;
8716;SDS011;4395;48.554;8.820;2023-04-23T10:30:12;1.00;;;0.80;;
8716;SDS011;4395;48.554;8.820;2023-04-23T10:32:15;0.83;;;0.83;;
8716;SDS011;4395;48.554;8.820;2023-04-23T10:34:19;1.77;;;1.63;;
8716;SDS011;4395;48.554;8.820;2023-04-23T10:36:23;2.10;;;1.60;;
8716;SDS011;4395;48.554;8.820;2023-04-23T10:38:28;0.90;;;0.90;;
8716;SDS011;4395;48.554;8.820;2023-04-23T10:40:31;1.23;;;1.13;;
8716;SDS011;4395;48.554;8.820;2023-04-23T10:42:39;2.17;;;1.93;;
8716;SDS011;4395;48.554;8.820;2023-04-23T10:44:44;0.70;;;0.70;;
8716;SDS011;4395;48.554;8.820;2023-04-23T10:47:01;0.63;;;0.63;;
8716;SDS011;4395;48.554;8.820;2023-04-23T10:49:09;1.93;;;0.83;;
8716;SDS011;4395;48.554;8.820;2023-04-23T10:51:15;0.87;;;0.80;;
8716;SDS011;4395;48.554;8.820;2023-04-23T10:53:38;1.13;;;1.03;;
8716;SDS011;4395;48.554;8.820;2023-04-23T10:55:43;0.93;;;0.83;;
8716;SDS011;4395;48.554;8.820;2023-04-23T11:00:09;1.10;;;0.80;;
8716;SDS011;4395;48.554;8.820;2023-04-23T11:02:13;2.33;;;0.90;;
8716;SDS011;4395;48.554;8.820;2023-04-23T11:04:19;1.93;;;1.17;;
8716;SDS011;4395;48.554;8.820;2023-04-23T11:08:58;0.87;;;0.73;;
8716;SDS011;4395;48.554;8.820;2023-04-23T11:11:23;0.80;;;0.80;;
8716;SDS011;4395;48.554;8.820;2023-04-23T11:13:49;2.07;;;1.87;;
8716;SDS011;4395;48.554;8.820;2023-04-23T11:16:12;1.17;;;1.00;;
8716;SDS011;4395;48.554;8.820;2023-04-23T11:18:16;1.10;;;0.97;;
8716;SDS011;4395;48.554;8.820;2023-04-23T11:20:19;0.90;;;0.83;;
8716;SDS011;4395;48.554;8.820;2023-04-23T11:22:23;1.00;;;0.80;;
8716;SDS011;4395;48.554;8.820;2023-04-23T11:24:36;1.20;;;1.10;;
8716;SDS011;4395;48.554;8.820;2023-04-23T11:26:42;1.00;;;0.90;;
8716;SDS011;4395;48.554;8.820;2023-04-23T11:28:47;1.40;;;1.30;;
8716;SDS011;4395;48.554;8.820;2023-04-23T11:30:53;1.20;;;1.10;;
8716;SDS011;4395;48.554;8.820;2023-04-23T11:32:56;4.93;;;4.40;;
8716;SDS011;4395;48.554;8.820;2023-04-23T11:35:00;2.93;;;1.97;;
8716;SDS011;4395;48.554;8.820;2023-04-23T11:37:05;1.67;;;1.33;;
8716;SDS011;4395;48.554;8.820;2023-04-23T11:39:11;1.83;;;0.90;;
8716;SDS011;4395;48.554;8.820;2023-04-23T11:41:14;2.20;;;1.17;;
8716;SDS011;4395;48.554;8.820;2023-04-23T11:43:23;1.77;;;1.00;;
8716;SDS011;4395;48.554;8.820;2023-04-23T11:45:30;2.20;;;1.10;;
8716;SDS011;4395;48.554;8.820;2023-04-23T11:47:33;0.97;;;0.97;;
8716;SDS011;4395;48.554;8.820;2023-04-23T11:49:36;0.77;;;0.77;;
8716;SDS011;4395;48.554;8.820;2023-04-23T11:51:40;0.80;;;0.80;;
8716;SDS011;4395;48.554;8.820;2023-04-23T11:53:45;1.63;;;1.07;;
8716;SDS011;4395;48.554;8.820;2023-04-23T11:55:48;1.03;;;1.03;;
8716;SDS011;4395;48.554;8.820;2023-04-23T11:57:51;0.90;;;0.80;;
8716;SDS011;4395;48.554;8.820;2023-04-23T11:59:54;1.03;;;0.90;;
8716;SDS011;4395;48.554;8.820;2023-04-23T12:01:58;1.63;;;0.90;;
8716;SDS011;4395;48.554;8.820;2023-04-23T12:04:07;1.07;;;0.67;;
8716;SDS011;4395;48.554;8.820;2023-04-23T12:06:11;0.80;;;0.80;;
8716;SDS011;4395;48.554;8.820;2023-04-23T12:08:14;1.33;;;0.80;;
8716;SDS011;4395;48.554;8.820;2023-04-23T12:10:18;1.50;;;0.93;;
8716;SDS011;4395;48.554;8.820;2023-04-23T12:12:21;1.07;;;0.93;;
8716;SDS011;4395;48.554;8.820;2023-04-23T12:14:25;1.13;;;1.00;;
8716;SDS011;4395;48.554;8.820;2023-04-23T12:16:33;0.80;;;0.80;;
8716;SDS011;4395;48.554;8.820;2023-04-23T12:18:39;1.17;;;1.00;;
8716;SDS011;4395;48.554;8.820;2023-04-23T12:20:44;0.90;;;0.90;;
8716;SDS011;4395;48.554;8.820;2023-04-23T12:22:47;1.33;;;0.80;;
8716;SDS011;4395;48.554;8.820;2023-04-23T12:24:50;1.33;;;1.00;;
8716;SDS011;4395;48.554;8.820;2023-04-23T12:26:55;1.27;;;0.90;;
8716;SDS011;4395;48.554;8.820;2023-04-23T12:29:01;1.10;;;0.83;;
8716;SDS011;4395;48.554;8.820;2023-04-23T12:31:03;1.77;;;1.00;;
8716;SDS011;4395;48.554;8.820;2023-04-23T12:33:09;2.90;;;1.13;;
8716;SDS011;4395;48.554;8.820;2023-04-23T12:35:14;0.90;;;0.90;;
8716;SDS011;4395;48.554;8.820;2023-04-23T12:37:16;1.10;;;1.00;;
8716;SDS011;4395;48.554;8.820;2023-04-23T12:39:20;0.90;;;0.90;;
8716;SDS011;4395;48.554;8.820;2023-04-23T12:41:25;1.50;;;0.97;;
8716;SDS011;4395;48.554;8.820;2023-04-23T12:43:28;2.43;;;1.10;;
8716;SDS011;4395;48.554;8.820;2023-04-23T12:45:35;0.80;;;0.80;;
8716;SDS011;4395;48.554;8.820;2023-04-23T12:47:38;1.20;;;1.10;;
8716;SDS011;4395;48.554;8.820;2023-04-23T12:49:41;1.00;;;1.00;;
8716;SDS011;4395;48.554;8.820;2023-04-23T12:51:46;0.90;;;0.87;;
8716;SDS011;4395;48.554;8.820;2023-04-23T12:53:49;2.43;;;0.70;;
8716;SDS011;4395;48.554;8.820;2023-04-23T12:55:52;0.70;;;0.70;;
8716;SDS011;4395;48.554;8.820;2023-04-23T12:57:55;1.37;;;0.90;;